createdAt,value
2023-07-20T00:02:53.251Z,100458.63
2023-07-20T00:05:26.049Z,100458.72
2023-07-20T00:07:54.946Z,100457.09
2023-07-20T00:10:23.554Z,100459.03
2023-07-20T00:12:52.265Z,100461.91
2023-07-20T00:15:20.901Z,100456.91
2023-07-20T00:17:49.703Z,100461.47
2023-07-20T00:20:18.984Z,100460.97
2023-07-20T00:22:48.754Z,100459.38
2023-07-20T00:25:17.508Z,100461.25
2023-07-20T00:27:46.499Z,100466.88
2023-07-20T00:30:15.900Z,100471.69
2023-07-20T00:32:45.923Z,100469.53
2023-07-20T00:35:15.342Z,100461.19
2023-07-20T00:37:43.930Z,100465.88
2023-07-20T00:40:14.018Z,100463.75
2023-07-20T00:42:42.347Z,100467.13
2023-07-20T00:45:11.302Z,100466.06
2023-07-20T00:47:39.954Z,100464.94
2023-07-20T00:50:09.860Z,100470.03
2023-07-20T00:52:40.438Z,100474.22
2023-07-20T00:55:11.248Z,100467.56
2023-07-20T00:57:41.410Z,100473.28
2023-07-20T01:00:11.010Z,100471.78
2023-07-20T01:02:39.753Z,100475.59
2023-07-20T01:05:10.038Z,100477.50
2023-07-20T01:07:45.331Z,100479.59
2023-07-20T01:10:19.692Z,100473.91
2023-07-20T01:12:54.184Z,100473.56
2023-07-20T01:15:22.946Z,100471.44
2023-07-20T01:17:51.551Z,100474.69
2023-07-20T01:20:24.420Z,100476.81
2023-07-20T01:23:15.357Z,100473.66
2023-07-20T01:26:04.452Z,100474.81
2023-07-20T01:28:56.790Z,100474.34
2023-07-20T01:31:28.349Z,100482.50
2023-07-20T01:33:59.630Z,100475.59
2023-07-20T01:36:35.190Z,100478.44
2023-07-20T01:39:05.723Z,100482.25
2023-07-20T01:41:34.975Z,100483.41
2023-07-20T01:44:05.554Z,100475.81
2023-07-20T01:46:35.273Z,100481.47
2023-07-20T01:49:04.455Z,100488.88
2023-07-20T01:51:34.354Z,100476.91
2023-07-20T01:54:04.042Z,100481.63
2023-07-20T01:56:32.765Z,100475.72
2023-07-20T01:59:02.368Z,100476.88
2023-07-20T02:01:31.181Z,100479.59
2023-07-20T02:04:03.597Z,100481.41
2023-07-20T02:06:32.424Z,100478.75
2023-07-20T02:09:01.106Z,100477.06
2023-07-20T02:11:30.031Z,100477.91
2023-07-20T02:13:58.767Z,100481.41
2023-07-20T02:16:27.545Z,100479.88
2023-07-20T02:18:57.952Z,100480.06
2023-07-20T02:21:27.976Z,100474.94
2023-07-20T02:23:56.556Z,100474.16
2023-07-20T02:26:25.283Z,100484.00
2023-07-20T02:28:54.018Z,100491.41
2023-07-20T02:31:22.624Z,100483.75
2023-07-20T02:33:51.285Z,100486.78
2023-07-20T02:36:20.326Z,100480.13
2023-07-20T02:38:50.281Z,100485.75
2023-07-20T02:41:18.883Z,100486.94
2023-07-20T02:43:47.476Z,100481.81
2023-07-20T02:46:16.281Z,100489.00
2023-07-20T02:48:45.043Z,100481.13
2023-07-20T02:51:14.372Z,100488.31
2023-07-20T02:53:43.459Z,100486.63
2023-07-20T02:56:13.429Z,100489.34
2023-07-20T02:58:46.888Z,100482.44
2023-07-20T03:01:16.633Z,100493.97
2023-07-20T03:03:47.895Z,100486.00
2023-07-20T03:06:16.877Z,100490.53
2023-07-20T03:08:48.198Z,100486.19
2023-07-20T03:11:18.453Z,100492.44
2023-07-20T03:13:47.619Z,100483.72
2023-07-20T03:16:22.019Z,100490.88
2023-07-20T03:18:50.872Z,100484.91
2023-07-20T03:21:19.679Z,100488.66
2023-07-20T03:23:48.423Z,100488.00
2023-07-20T03:26:18.352Z,100488.16
2023-07-20T03:28:47.099Z,100494.50
2023-07-20T03:31:16.640Z,100496.34
2023-07-20T03:33:45.435Z,100501.81
2023-07-20T03:36:14.232Z,100503.69
2023-07-20T03:38:42.949Z,100504.81
2023-07-20T03:41:13.131Z,100519.06
2023-07-20T03:43:43.273Z,100505.94
2023-07-20T03:46:11.956Z,100518.41
2023-07-20T03:48:41.249Z,100515.97
2023-07-20T03:51:09.575Z,100519.75
2023-07-20T03:53:38.508Z,100516.47
2023-07-20T03:56:07.477Z,100522.94
2023-07-20T03:58:36.163Z,100518.84
2023-07-20T04:01:05.808Z,100507.69
2023-07-20T04:03:34.794Z,100518.69
2023-07-20T04:06:03.611Z,100519.00
2023-07-20T04:08:32.266Z,100514.94
2023-07-20T04:11:03.090Z,100516.84
2023-07-20T04:13:35.481Z,100516.16
2023-07-20T04:16:05.725Z,100511.91
2023-07-20T04:18:34.351Z,100517.31
2023-07-20T04:21:02.935Z,100518.22
2023-07-20T04:23:31.690Z,100513.88
2023-07-20T04:26:00.430Z,100515.72
2023-07-20T04:28:29.315Z,100514.88
2023-07-20T04:31:11.168Z,100522.91
2023-07-20T04:33:41.561Z,100524.78
2023-07-20T04:36:10.572Z,100524.78
2023-07-20T04:38:39.140Z,100527.34
2023-07-20T04:41:21.936Z,100529.06
2023-07-20T04:43:52.751Z,100531.63
2023-07-20T04:46:32.322Z,100526.16
2023-07-20T04:49:04.964Z,100531.25
2023-07-20T04:51:38.021Z,100537.22
2023-07-20T04:54:06.709Z,100537.84
2023-07-20T04:56:38.521Z,100542.69
2023-07-20T04:59:10.212Z,100540.38
2023-07-20T05:01:38.949Z,100529.88
2023-07-20T05:04:09.363Z,100530.78
2023-07-20T05:06:39.872Z,100530.91
2023-07-20T05:09:08.863Z,100523.22
2023-07-20T05:11:37.713Z,100524.44
2023-07-20T05:14:06.341Z,100518.63
2023-07-20T05:16:35.137Z,100519.97
2023-07-20T05:19:08.474Z,100513.47
2023-07-20T05:21:37.322Z,100518.44
2023-07-20T05:24:06.876Z,100508.50
2023-07-20T05:26:35.668Z,100525.84
2023-07-20T05:29:04.257Z,100521.81
2023-07-20T05:31:33.222Z,100524.00
2023-07-20T05:34:01.583Z,100526.28
2023-07-20T05:36:32.109Z,100526.97
2023-07-20T05:39:00.838Z,100532.19
2023-07-20T05:41:29.410Z,100528.53
2023-07-20T05:43:58.048Z,100524.91
2023-07-20T05:46:29.619Z,100527.50
2023-07-20T05:49:02.790Z,100527.50
2023-07-20T05:51:34.713Z,100530.91
2023-07-20T05:54:04.770Z,100536.38
2023-07-20T05:56:33.580Z,100539.16
2023-07-20T05:59:02.135Z,100538.28
2023-07-20T06:01:30.744Z,100536.56
2023-07-20T06:03:59.421Z,100536.47
2023-07-20T06:06:28.022Z,100539.75
2023-07-20T06:08:58.017Z,100532.09
2023-07-20T06:11:26.654Z,100529.84
2023-07-20T06:13:55.211Z,100534.59
2023-07-20T06:16:23.681Z,100534.97
2023-07-20T06:18:52.534Z,100540.53
2023-07-20T06:21:21.110Z,100544.38
2023-07-20T06:23:49.434Z,100534.03
2023-07-20T06:26:21.183Z,100542.13
2023-07-20T06:28:49.722Z,100531.75
2023-07-20T06:31:18.615Z,100537.38
2023-07-20T06:33:47.275Z,100541.25
2023-07-20T06:36:15.875Z,100542.59
2023-07-20T06:40:32.938Z,100542.09
2023-07-20T06:44:06.180Z,100539.34
2023-07-20T06:46:34.764Z,100543.25
2023-07-20T06:51:34.881Z,100542.91
2023-07-20T06:54:05.669Z,100541.44
2023-07-20T06:56:36.108Z,100552.25
2023-07-20T06:59:04.904Z,100544.50
2023-07-20T07:01:33.516Z,100554.44
2023-07-20T07:04:02.332Z,100542.44
2023-07-20T07:06:31.399Z,100541.59
2023-07-20T07:09:00.079Z,100547.09
2023-07-20T07:11:29.000Z,100557.44
2023-07-20T07:13:59.000Z,100554.91
2023-07-20T07:16:27.733Z,100556.38
2023-07-20T07:19:00.411Z,100552.56
2023-07-20T07:21:29.606Z,100554.25
2023-07-20T07:24:00.333Z,100551.59
2023-07-20T07:26:28.942Z,100547.44
2023-07-20T07:28:58.885Z,100548.94
2023-07-20T07:31:28.054Z,100554.88
2023-07-20T07:33:56.843Z,100549.53
2023-07-20T07:36:25.532Z,100547.28
2023-07-20T07:41:25.760Z,100547.13
2023-07-20T07:43:54.347Z,100548.88
2023-07-20T07:46:24.515Z,100544.63
2023-07-20T07:48:54.089Z,100541.19
2023-07-20T07:51:22.839Z,100540.22
2023-07-20T07:53:51.578Z,100535.09
2023-07-20T07:56:24.059Z,100540.06
2023-07-20T07:58:53.596Z,100534.34
2023-07-20T08:01:23.959Z,100542.63
2023-07-20T08:03:52.943Z,100541.75
2023-07-20T08:06:21.585Z,100542.69
2023-07-20T08:08:50.484Z,100544.00
2023-07-20T08:11:19.242Z,100534.97
2023-07-20T08:13:47.867Z,100534.66
2023-07-20T08:16:16.457Z,100542.91
2023-07-20T08:18:46.689Z,100547.69
2023-07-20T08:21:15.535Z,100533.25
2023-07-20T08:23:44.171Z,100544.53
2023-07-20T08:26:13.069Z,100538.91
2023-07-20T08:28:41.565Z,100531.56
2023-07-20T08:31:10.187Z,100537.53
2023-07-20T08:33:38.786Z,100536.66
2023-07-20T08:36:12.127Z,100536.84
2023-07-20T08:38:40.985Z,100526.97
2023-07-20T08:41:11.344Z,100530.28
2023-07-20T08:43:43.182Z,100531.50
2023-07-20T08:46:15.658Z,100529.09
2023-07-20T08:48:45.266Z,100528.78
2023-07-20T08:51:16.825Z,100527.69
2023-07-20T08:53:47.660Z,100526.97
2023-07-20T08:56:18.398Z,100522.81
2023-07-20T08:58:47.914Z,100529.94
2023-07-20T09:01:17.749Z,100525.56
2023-07-20T09:03:48.202Z,100529.16
2023-07-20T09:06:18.665Z,100529.03
2023-07-20T09:08:47.273Z,100527.81
2023-07-20T09:11:16.612Z,100522.13
2023-07-20T09:13:45.223Z,100525.53
2023-07-20T09:16:16.696Z,100529.28
2023-07-20T09:18:45.361Z,100512.00
2023-07-20T09:21:13.626Z,100515.06
2023-07-20T09:23:43.329Z,100515.75
2023-07-20T09:26:16.682Z,100516.06
2023-07-20T09:28:48.007Z,100512.03
2023-07-20T09:31:20.179Z,100511.97
2023-07-20T09:36:58.851Z,100505.56
2023-07-20T09:39:11.800Z,100511.31
2023-07-20T09:41:46.211Z,100512.13
2023-07-20T09:51:56.237Z,100501.13
2023-07-20T09:54:29.368Z,100509.72
2023-07-20T09:56:58.998Z,100507.53
2023-07-20T09:59:29.188Z,100496.94
2023-07-20T10:02:02.726Z,100499.09
2023-07-20T10:04:31.615Z,100507.19
2023-07-20T10:07:06.336Z,100492.63
2023-07-20T10:09:41.843Z,100495.66
2023-07-20T10:12:17.364Z,100493.72
2023-07-20T10:14:54.976Z,100496.25
2023-07-20T10:17:25.796Z,100486.44
2023-07-20T10:19:59.180Z,100483.28
2023-07-20T10:22:29.274Z,100476.53
2023-07-20T10:25:01.873Z,100475.34
2023-07-20T10:27:31.237Z,100471.50
2023-07-20T10:30:01.524Z,100473.94
2023-07-20T10:32:31.446Z,100471.81
2023-07-20T10:35:00.382Z,100467.59
2023-07-20T10:37:51.492Z,100470.84
2023-07-20T10:40:35.440Z,100456.78
2023-07-20T10:43:08.057Z,100460.28
2023-07-20T10:45:46.300Z,100460.03
2023-07-20T10:48:20.384Z,100443.63
2023-07-20T10:51:14.402Z,100447.97
2023-07-20T10:53:43.398Z,100448.13
2023-07-20T10:56:15.068Z,100438.34
2023-07-20T10:58:44.040Z,100431.03
2023-07-20T11:01:16.977Z,100431.50
2023-07-20T11:06:35.976Z,100432.34
2023-07-20T11:09:15.860Z,100438.28
2023-07-20T11:11:47.141Z,100435.59
2023-07-20T11:14:24.108Z,100434.88
2023-07-20T11:16:54.257Z,100436.25
2023-07-20T11:22:03.978Z,100436.84
2023-07-20T11:24:33.704Z,100441.97
2023-07-20T11:27:03.929Z,100438.94
2023-07-20T11:29:34.091Z,100442.25
2023-07-20T11:32:05.177Z,100444.16
2023-07-20T11:34:35.471Z,100442.25
2023-07-20T11:39:36.910Z,100437.56
2023-07-20T11:42:08.852Z,100440.09
2023-07-20T11:44:38.010Z,100438.34
2023-07-20T11:47:09.079Z,100437.91
2023-07-20T11:49:38.887Z,100434.22
2023-07-20T11:52:08.799Z,100440.28
2023-07-20T11:54:39.977Z,100434.47
2023-07-20T11:57:17.870Z,100435.88
2023-07-20T11:59:58.288Z,100434.34
2023-07-20T12:02:29.194Z,100422.00
2023-07-20T12:04:58.749Z,100418.09
2023-07-20T12:07:29.913Z,100407.72
2023-07-20T12:10:09.777Z,100415.25
2023-07-20T12:12:42.670Z,100412.91
2023-07-20T12:15:18.734Z,100402.72
2023-07-20T12:17:48.467Z,100392.63
2023-07-20T12:20:28.298Z,100397.63
2023-07-20T12:23:00.300Z,100390.25
2023-07-20T12:25:39.454Z,100382.19
2023-07-20T12:28:10.632Z,100384.19
2023-07-20T12:30:40.213Z,100379.66
2023-07-20T12:33:09.326Z,100379.47
2023-07-20T12:35:38.026Z,100395.19
2023-07-20T12:38:07.277Z,100386.19
2023-07-20T12:40:37.720Z,100385.66
2023-07-20T12:43:07.363Z,100390.13
2023-07-20T12:45:38.214Z,100385.84
2023-07-20T12:48:07.255Z,100384.50
2023-07-20T12:50:35.827Z,100384.88
2023-07-20T12:53:05.259Z,100386.16
2023-07-20T12:55:33.933Z,100388.47
2023-07-20T12:58:02.700Z,100378.16
2023-07-20T13:00:31.449Z,100377.13
2023-07-20T13:10:39.609Z,100353.75
2023-07-20T13:13:08.161Z,100349.91
2023-07-20T13:15:47.422Z,100348.78
2023-07-20T13:18:17.299Z,100347.75
2023-07-20T13:20:45.854Z,100347.63
2023-07-20T13:23:14.426Z,100337.19
2023-07-20T13:25:43.212Z,100341.19
2023-07-20T13:28:11.773Z,100342.84
2023-07-20T13:30:41.548Z,100338.72
2023-07-20T13:33:13.670Z,100339.91
2023-07-20T13:35:49.628Z,100336.94
2023-07-20T13:38:19.442Z,100338.28
2023-07-20T13:40:48.009Z,100333.78
2023-07-20T13:43:16.988Z,100336.31
2023-07-20T13:45:45.586Z,100333.31
2023-07-20T13:48:17.919Z,100337.75
2023-07-20T13:51:00.197Z,100340.03
2023-07-20T13:58:34.539Z,100337.72
2023-07-20T14:01:03.147Z,100334.44
2023-07-20T14:03:31.872Z,100342.97
2023-07-20T14:08:33.554Z,100338.53
2023-07-20T14:13:46.731Z,100321.81
2023-07-20T14:16:16.546Z,100321.44
2023-07-20T14:18:49.749Z,100318.13
2023-07-20T14:21:21.488Z,100311.25
2023-07-20T14:23:53.960Z,100313.00
2023-07-20T14:26:23.570Z,100316.16
2023-07-20T14:28:52.451Z,100311.06
2023-07-20T14:31:21.280Z,100310.88
2023-07-20T14:33:49.778Z,100310.16
2023-07-20T14:36:19.839Z,100302.09
2023-07-20T14:38:48.405Z,100310.63
2023-07-20T14:41:17.096Z,100294.69
2023-07-20T14:43:46.559Z,100293.34
2023-07-20T14:46:15.192Z,100292.47
2023-07-20T14:48:43.840Z,100289.53
2023-07-20T14:51:12.442Z,100289.84
2023-07-20T14:53:42.038Z,100278.28
2023-07-20T14:56:11.179Z,100281.31
2023-07-20T14:58:39.819Z,100284.16
2023-07-20T15:01:08.411Z,100289.34
2023-07-20T15:03:37.030Z,100276.97
2023-07-20T15:06:05.799Z,100276.50
2023-07-20T15:08:34.330Z,100272.72
2023-07-20T15:11:04.257Z,100263.88
2023-07-20T15:13:32.824Z,100270.28
2023-07-20T15:16:01.394Z,100263.31
2023-07-20T15:18:45.313Z,100265.84
2023-07-20T15:21:16.605Z,100253.97
2023-07-20T15:23:45.553Z,100248.69
2023-07-20T15:26:16.083Z,100255.00
2023-07-20T15:28:44.762Z,100241.16
2023-07-20T15:31:13.858Z,100252.47
2023-07-20T15:33:42.728Z,100241.94
2023-07-20T15:36:11.381Z,100242.00
2023-07-20T15:38:42.510Z,100251.13
2023-07-20T15:41:13.337Z,100234.66
2023-07-20T15:43:43.787Z,100225.81
2023-07-20T15:46:49.231Z,100225.47
2023-07-20T15:49:18.849Z,100213.66
2023-07-20T15:51:48.090Z,100222.47
2023-07-20T15:54:17.173Z,100222.66
2023-07-20T15:56:46.702Z,100207.50
2023-07-20T15:59:18.562Z,100212.13
2023-07-20T16:01:47.779Z,100216.50
2023-07-20T16:04:16.889Z,100200.91
2023-07-20T16:06:45.572Z,100204.97
2023-07-20T16:09:15.884Z,100198.78
2023-07-20T16:11:45.790Z,100198.31
2023-07-20T16:14:16.686Z,100192.28
2023-07-20T16:16:45.603Z,100196.13
2023-07-20T16:19:14.229Z,100205.69
2023-07-20T16:21:42.852Z,100201.81
2023-07-20T16:24:11.720Z,100209.09
2023-07-20T16:26:44.698Z,100203.50
2023-07-20T16:34:18.886Z,100196.50
2023-07-20T16:44:22.031Z,100195.59
2023-07-20T16:49:23.701Z,100179.88
2023-07-20T16:51:52.334Z,100186.13
2023-07-20T16:54:20.960Z,100182.75
2023-07-20T16:56:49.526Z,100180.03
2023-07-20T16:59:19.105Z,100182.22
2023-07-20T17:01:47.691Z,100186.06
2023-07-20T17:04:17.733Z,100183.97
2023-07-20T17:06:47.735Z,100185.28
2023-07-20T17:09:16.959Z,100184.06
2023-07-20T17:11:45.531Z,100182.81
2023-07-20T17:14:14.136Z,100173.63
2023-07-20T17:16:42.793Z,100180.44
2023-07-20T17:19:11.448Z,100182.72
2023-07-20T17:21:41.184Z,100179.44
2023-07-20T17:24:11.324Z,100178.72
2023-07-20T17:29:12.245Z,100178.53
2023-07-20T17:31:40.960Z,100173.78
2023-07-20T17:34:09.640Z,100182.34
2023-07-20T17:39:10.977Z,100179.34
2023-07-20T17:41:39.557Z,100181.66
2023-07-20T17:44:09.217Z,100181.13
2023-07-20T17:49:09.273Z,100176.19
2023-07-20T17:51:37.811Z,100168.63
2023-07-20T17:54:06.642Z,100181.25
2023-07-20T17:56:36.668Z,100178.88
2023-07-20T17:59:05.267Z,100172.72
2023-07-20T18:01:34.028Z,100179.03
2023-07-20T18:04:02.909Z,100180.88
2023-07-20T18:06:31.202Z,100182.81
2023-07-20T18:08:59.514Z,100189.94
2023-07-20T18:11:28.127Z,100181.91
2023-07-20T18:13:58.605Z,100182.66
2023-07-20T18:16:27.264Z,100179.72
2023-07-20T18:18:57.233Z,100180.31
2023-07-20T18:21:25.847Z,100180.19
2023-07-20T18:23:54.729Z,100178.22
2023-07-20T18:26:23.338Z,100175.44
2023-07-20T18:28:53.066Z,100174.19
2023-07-20T18:31:23.666Z,100184.78
2023-07-20T18:33:53.473Z,100174.63
2023-07-20T18:36:21.842Z,100185.97
2023-07-20T18:38:50.430Z,100183.97
2023-07-20T18:41:19.118Z,100189.09
2023-07-20T18:43:47.791Z,100177.25
2023-07-20T18:46:18.018Z,100184.13
2023-07-20T18:48:48.816Z,100194.75
2023-07-20T18:51:17.445Z,100185.56
2023-07-20T18:53:46.035Z,100182.88
2023-07-20T18:56:14.651Z,100188.97
2023-07-20T18:58:43.245Z,100187.97
2023-07-20T19:01:11.905Z,100179.63
2023-07-20T19:03:40.665Z,100182.84
2023-07-20T19:06:10.413Z,100186.94
2023-07-20T19:08:38.962Z,100183.97
2023-07-20T19:13:38.933Z,100189.84
2023-07-20T19:16:08.600Z,100188.97
2023-07-20T19:18:39.169Z,100195.94
2023-07-20T19:21:09.671Z,100194.28
2023-07-20T19:23:38.237Z,100195.50
2023-07-20T19:26:11.226Z,100197.91
2023-07-20T19:28:40.741Z,100200.97
2023-07-20T19:31:10.003Z,100200.53
2023-07-20T19:33:38.893Z,100199.66
2023-07-20T19:36:09.050Z,100201.22
2023-07-20T19:38:37.819Z,100205.47
2023-07-20T19:41:06.713Z,100206.06
2023-07-20T19:43:35.497Z,100203.16
2023-07-20T19:46:04.836Z,100206.56
2023-07-20T19:48:33.561Z,100208.25
2023-07-20T19:51:02.181Z,100208.25
2023-07-20T19:53:32.926Z,100218.94
2023-07-20T19:56:03.534Z,100218.94
2023-07-20T19:58:34.499Z,100217.25
2023-07-20T20:06:07.745Z,100212.66
2023-07-20T20:08:37.861Z,100212.91
2023-07-20T20:13:38.084Z,100218.75
2023-07-20T20:16:07.024Z,100211.00
2023-07-20T20:18:44.414Z,100214.75
2023-07-20T20:21:13.644Z,100215.84
2023-07-20T20:23:43.984Z,100208.09
2023-07-20T20:26:12.653Z,100216.34
2023-07-20T20:28:41.168Z,100217.44
2023-07-20T20:31:09.837Z,100215.75
2023-07-20T20:33:38.604Z,100211.50
2023-07-20T20:36:07.887Z,100218.78
2023-07-20T20:38:36.334Z,100214.41
2023-07-20T20:41:08.880Z,100222.56
2023-07-20T20:43:37.523Z,100215.66
2023-07-20T20:46:06.653Z,100221.25
2023-07-20T20:48:49.722Z,100229.56
2023-07-20T20:51:18.324Z,100225.31
2023-07-20T20:53:46.896Z,100223.88
2023-07-20T20:56:16.965Z,100230.31
2023-07-20T20:58:45.615Z,100225.09
2023-07-20T21:01:14.218Z,100219.03
2023-07-20T21:03:42.915Z,100214.66
2023-07-20T21:06:11.350Z,100214.16
2023-07-20T21:08:39.973Z,100213.56
2023-07-20T21:11:08.860Z,100216.47
2023-07-20T21:13:38.777Z,100210.50
2023-07-20T21:16:07.698Z,100203.47
2023-07-20T21:18:36.300Z,100209.78
2023-07-20T21:21:05.571Z,100204.69
2023-07-20T21:23:34.092Z,100202.97
2023-07-20T21:26:02.712Z,100209.44
2023-07-20T21:28:31.726Z,100208.56
2023-07-20T21:31:06.032Z,100210.38
2023-07-20T21:33:35.310Z,100204.31
2023-07-20T21:36:05.957Z,100207.13
2023-07-20T21:38:38.431Z,100209.88
2023-07-20T21:41:07.354Z,100198.50
2023-07-20T21:43:36.393Z,100204.78
2023-07-20T21:46:06.474Z,100200.56
2023-07-20T21:48:35.618Z,100196.19
2023-07-20T21:51:04.251Z,100190.13
2023-07-20T21:53:32.803Z,100192.06
2023-07-20T21:56:01.400Z,100192.28
2023-07-20T21:58:29.994Z,100197.63
2023-07-20T22:00:59.630Z,100203.91
2023-07-20T22:03:29.859Z,100197.88
2023-07-20T22:05:58.692Z,100199.69
2023-07-20T22:08:27.334Z,100201.50
2023-07-20T22:10:56.273Z,100198.97
2023-07-20T22:13:24.909Z,100202.59
2023-07-20T22:15:53.488Z,100200.78
2023-07-20T22:18:35.615Z,100195.53
2023-07-20T22:21:06.825Z,100177.84
2023-07-20T22:23:36.176Z,100176.16
2023-07-20T22:26:04.966Z,100178.94
2023-07-20T22:28:33.843Z,100187.31
2023-07-20T22:31:02.957Z,100194.63
2023-07-20T22:33:31.527Z,100183.34
2023-07-20T22:36:00.108Z,100179.09
2023-07-20T22:38:30.183Z,100179.25
2023-07-20T22:40:58.794Z,100176.66
2023-07-20T22:43:29.319Z,100179.47
2023-07-20T22:45:58.191Z,100179.72
2023-07-20T22:48:28.778Z,100179.94
2023-07-20T22:50:59.832Z,100181.03
2023-07-20T22:53:31.131Z,100181.88
2023-07-20T22:55:59.837Z,100183.78
2023-07-20T22:58:28.111Z,100182.94
2023-07-20T23:00:56.916Z,100172.28
2023-07-20T23:03:25.684Z,100166.09
2023-07-20T23:05:54.598Z,100165.25
2023-07-20T23:08:23.284Z,100158.19
2023-07-20T23:10:53.737Z,100169.09
2023-07-20T23:13:24.028Z,100178.09
2023-07-20T23:15:52.676Z,100171.28
2023-07-20T23:18:25.300Z,100175.78
2023-07-20T23:20:54.814Z,100172.38
2023-07-20T23:23:23.524Z,100168.97
2023-07-20T23:25:55.594Z,100167.88
2023-07-20T23:28:24.520Z,100163.53
2023-07-20T23:30:53.101Z,100159.69
2023-07-20T23:33:23.572Z,100152.53
2023-07-20T23:35:52.529Z,100148.28
2023-07-20T23:38:21.172Z,100154.59
2023-07-20T23:40:49.854Z,100153.00
2023-07-20T23:43:19.719Z,100154.81
2023-07-20T23:45:48.313Z,100160.25
2023-07-20T23:48:16.909Z,100157.72
2023-07-20T23:50:45.166Z,100156.97
2023-07-20T23:53:13.780Z,100158.06
2023-07-20T23:55:42.623Z,100159.13
2023-07-20T23:58:11.518Z,100161.94
